Fayetteville/Pope AFB, North Carolina
Current Conditions -  °F | °C
As of 3:58 PM on Friday 24 Oct 2014 (Local Time) from KPOB Reporting Station
Few Clouds Few Clouds  
Wind Chill: 70°   Ceiling: Unl
Heat Index: 70°   Visibility: 10mi
Dew Point: 45°   Wind: 5mph
Humidity: 41%   Direction: 270°W
Pressure: 29.97"   Gusts: NA
Location:  35.16°N, 79.01°W
Report Text: KPOB 241958Z AUTO 27004KT 10SM FEW210 21/07 A2997 RMK AO2 SLP151 T02100074
Loading
Personal Weather Stations






























Interactive Weather Map
Tropical Storm Tracking
New forecast layout! Learn more

10-Day Weather Forecast

Advertisements
Track Severe Weather on mobile